Time;durP1;ratioP1;P1;durP2;ratioP2;P2;SDS_P1;SDS_P2;PMS_P1;PMS_P2;Temp;Humidity;BMP_temperature;BMP_pressure;BME280_temperature;BME280_humidity;BME280_pressure;Samples;Min_cycle;Max_cycle;Signal;HPM_P1;HPM_P2
2022/05/10 00:01:43;;;;;;;;;;;21.90;53.90;;;;;;5074020;28;19936;-50
2022/05/10 00:04:11;;;;;;;;;;;21.90;53.90;;;;;;5075778;28;20035;-49
2022/05/10 00:06:40;;;;;;;;;;;21.90;53.90;;;;;;5075812;28;19974;-49
2022/05/10 00:09:07;;;;;;;;;;;21.90;53.90;;;;;;5075280;28;19928;-47
2022/05/10 00:11:35;;;;;;;;;;;21.90;53.90;;;;;;5075363;28;20380;-53
2022/05/10 00:14:02;;;;;;;;;;;21.80;53.80;;;;;;5075724;28;19924;-48
2022/05/10 00:16:30;;;;;;;;;;;21.90;53.90;;;;;;5079821;28;19977;-51
2022/05/10 00:18:57;;;;;;;;;;;21.80;53.80;;;;;;5095818;28;20037;-48
2022/05/10 00:21:25;;;;;;;;;;;21.80;53.80;;;;;;5083880;28;19931;-49
2022/05/10 00:23:52;;;;;;;;;;;21.90;53.90;;;;;;5075198;28;19939;-52
2022/05/10 00:26:19;;;;;;;;;;;21.90;53.90;;;;;;5074760;28;19986;-52
2022/05/10 00:28:46;;;;;;;;;;;21.90;53.90;;;;;;5075261;28;19928;-54
2022/05/10 00:31:13;;;;;;;;;;;21.90;53.90;;;;;;5075265;28;19924;-48
2022/05/10 00:33:40;;;;;;;;;;;21.90;53.90;;;;;;5074590;28;19963;-47
2022/05/10 00:36:10;;;;;;;;;;;21.90;53.90;;;;;;5075587;28;19928;-49
2022/05/10 00:38:38;;;;;;;;;;;21.90;53.90;;;;;;5075045;28;20308;-49
2022/05/10 00:41:07;;;;;;;;;;;21.90;53.90;;;;;;5078185;28;19978;-50
2022/05/10 00:43:36;;;;;;;;;;;21.80;53.80;;;;;;5093370;28;20323;-53
2022/05/10 00:46:13;;;;;;;;;;;21.90;53.90;;;;;;5075180;28;19924;-52
2022/05/10 00:48:42;;;;;;;;;;;21.90;53.90;;;;;;5075313;28;20376;-52
2022/05/10 00:51:28;;;;;;;;;;;21.90;53.90;;;;;;5075023;28;20007;-53
2022/05/10 00:53:59;;;;;;;;;;;21.80;53.80;;;;;;5074743;28;19928;-48
2022/05/10 00:56:41;;;;;;;;;;;21.80;53.80;;;;;;5074978;28;19925;-47
2022/05/10 00:59:11;;;;;;;;;;;21.80;53.80;;;;;;5074844;28;19931;-49
2022/05/10 01:01:40;;;;;;;;;;;21.80;53.80;;;;;;5074929;28;19924;-51
2022/05/10 01:04:07;;;;;;;;;;;21.90;53.90;;;;;;5073809;28;20403;-48
2022/05/10 01:06:37;;;;;;;;;;;21.80;53.80;;;;;;5074641;28;19981;-49
2022/05/10 01:09:09;;;;;;;;;;;21.80;53.80;;;;;;5074358;28;19924;-47
2022/05/10 01:11:38;;;;;;;;;;;21.80;53.80;;;;;;5074966;28;19925;-51
2022/05/10 01:14:15;;;;;;;;;;;21.80;53.80;;;;;;5089811;28;19977;-47
2022/05/10 01:16:42;;;;;;;;;;;21.80;53.80;;;;;;5090604;28;19925;-51
2022/05/10 01:19:09;;;;;;;;;;;21.80;53.80;;;;;;5074553;28;19931;-50
2022/05/10 01:21:51;;;;;;;;;;;21.80;54.40;;;;;;5074163;28;20330;-48
2022/05/10 01:24:41;;;;;;;;;;;21.80;53.80;;;;;;5074291;28;19937;-48
2022/05/10 01:27:08;;;;;;;;;;;21.80;53.80;;;;;;5063582;28;20370;-50
2022/05/10 01:29:41;;;;;;;;;;;21.80;53.80;;;;;;5074477;28;19924;-50
2022/05/10 01:34:58;;;;;;;;;;;21.80;53.80;;;;;;5074236;28;19928;-49
2022/05/10 01:37:28;;;;;;;;;;;21.80;53.80;;;;;;5073933;28;19947;-49
2022/05/10 01:39:57;;;;;;;;;;;21.80;53.80;;;;;;5074304;28;19931;-48
2022/05/10 01:42:32;;;;;;;;;;;21.80;53.80;;;;;;5080005;28;19924;-50
2022/05/10 01:45:02;;;;;;;;;;;21.80;53.90;;;;;;5074290;28;19925;-48
2022/05/10 01:47:41;;;;;;;;;;;21.80;53.80;;;;;;5074390;28;20265;-53
2022/05/10 01:50:16;;;;;;;;;;;21.80;53.80;;;;;;5073850;28;19928;-49
2022/05/10 01:53:03;;;;;;;;;;;21.80;53.80;;;;;;5073716;28;19978;-50
2022/05/10 01:55:38;;;;;;;;;;;21.80;53.80;;;;;;5074023;28;19928;-47
2022/05/10 01:58:16;;;;;;;;;;;21.80;53.80;;;;;;5073758;28;20429;-49
2022/05/10 02:00:45;;;;;;;;;;;21.80;53.80;;;;;;5073683;28;19952;-48
2022/05/10 02:03:24;;;;;;;;;;;21.80;53.80;;;;;;5073566;28;19970;-52
2022/05/10 02:06:00;;;;;;;;;;;21.80;53.80;;;;;;5073643;28;19924;-49
2022/05/10 02:08:30;;;;;;;;;;;21.80;53.80;;;;;;5073535;28;19947;-47
2022/05/10 02:11:00;;;;;;;;;;;21.80;53.80;;;;;;5090473;28;19931;-47
2022/05/10 02:13:30;;;;;;;;;;;21.80;53.80;;;;;;5085971;28;20265;-52
2022/05/10 02:15:59;;;;;;;;;;;21.80;53.80;;;;;;5073341;28;20373;-48
2022/05/10 02:18:35;;;;;;;;;;;21.80;53.80;;;;;;5073514;28;19950;-47
2022/05/10 02:21:02;;;;;;;;;;;21.80;53.80;;;;;;5073395;28;19934;-47
2022/05/10 02:23:32;;;;;;;;;;;21.80;53.80;;;;;;5072953;28;19931;-47
2022/05/10 02:26:09;;;;;;;;;;;21.80;53.80;;;;;;5072918;28;19924;-48
2022/05/10 02:28:42;;;;;;;;;;;21.80;54.40;;;;;;5073473;28;19928;-47
2022/05/10 02:33:06;;;;;;;;;;;21.80;53.80;;;;;;5073081;28;19924;-47
2022/05/10 02:34:20;;;;;;;;;;;21.80;53.80;;;;;;5073510;28;20288;-49
2022/05/10 02:36:47;;;;;;;;;;;21.80;53.80;;;;;;5073216;28;20393;-47
2022/05/10 02:39:14;;;;;;;;;;;21.80;53.80;;;;;;5073292;28;19974;-50
2022/05/10 02:41:41;;;;;;;;;;;21.80;53.80;;;;;;5078715;28;19931;-48
2022/05/10 02:44:08;;;;;;;;;;;21.80;53.80;;;;;;5073017;28;19925;-48
2022/05/10 02:46:35;;;;;;;;;;;21.80;53.80;;;;;;5072645;28;20372;-48
2022/05/10 02:49:09;;;;;;;;;;;21.80;53.80;;;;;;5072752;28;19925;-47
2022/05/10 02:51:36;;;;;;;;;;;21.80;53.80;;;;;;5073087;28;20003;-48
2022/05/10 02:54:03;;;;;;;;;;;21.80;53.80;;;;;;5073250;28;20294;-48
2022/05/10 02:56:30;;;;;;;;;;;21.80;53.80;;;;;;5090404;28;19977;-48
2022/05/10 02:59:07;;;;;;;;;;;21.80;53.80;;;;;;5080992;28;19943;-48
2022/05/10 03:01:50;;;;;;;;;;;21.80;53.80;;;;;;5072728;28;19925;-48
2022/05/10 03:04:21;;;;;;;;;;;21.80;53.80;;;;;;5073138;28;19970;-47
2022/05/10 03:06:48;;;;;;;;;;;21.80;53.80;;;;;;5090129;28;20345;-47
2022/05/10 03:09:15;;;;;;;;;;;21.80;53.80;;;;;;5083969;28;19929;-49
2022/05/10 03:11:42;;;;;;;;;;;21.80;53.80;;;;;;5072731;28;20372;-47
2022/05/10 03:14:10;;;;;;;;;;;21.80;53.80;;;;;;5073008;28;20288;-49
2022/05/10 03:16:37;;;;;;;;;;;21.80;53.80;;;;;;5072567;28;19978;-48
2022/05/10 03:19:04;;;;;;;;;;;21.80;53.80;;;;;;5072849;28;19924;-47
2022/05/10 03:21:34;;;;;;;;;;;21.80;53.80;;;;;;5072492;28;19928;-48
2022/05/10 03:24:01;;;;;;;;;;;21.80;53.80;;;;;;5072521;28;19924;-47
2022/05/10 03:26:28;;;;;;;;;;;21.80;53.80;;;;;;5072963;28;20093;-52
2022/05/10 03:28:55;;;;;;;;;;;21.80;53.80;;;;;;5072551;28;19924;-49
2022/05/10 03:31:25;;;;;;;;;;;21.80;53.80;;;;;;5072960;28;20297;-49
2022/05/10 03:36:38;;;;;;;;;;;21.80;53.80;;;;;;5072636;28;19972;-49
2022/05/10 03:39:06;;;;;;;;;;;21.80;53.80;;;;;;5072596;28;19931;-48
2022/05/10 03:41:33;;;;;;;;;;;21.80;53.80;;;;;;5078114;28;20346;-47
2022/05/10 03:44:00;;;;;;;;;;;21.80;53.80;;;;;;5072608;28;19925;-49
2022/05/10 03:46:27;;;;;;;;;;;21.80;53.80;;;;;;5072626;28;19928;-50
2022/05/10 03:48:54;;;;;;;;;;;21.80;53.80;;;;;;5072618;28;20046;-50
2022/05/10 03:51:21;;;;;;;;;;;21.80;53.80;;;;;;5072476;28;19924;-51
2022/05/10 03:53:48;;;;;;;;;;;21.80;53.80;;;;;;5072403;28;20454;-52
2022/05/10 03:56:15;;;;;;;;;;;21.80;53.70;;;;;;5087091;28;19931;-49
2022/05/10 03:58:42;;;;;;;;;;;21.80;53.70;;;;;;5092505;28;19925;-49
2022/05/10 04:01:09;;;;;;;;;;;21.80;53.70;;;;;;5094039;28;19974;-49
2022/05/10 04:03:36;;;;;;;;;;;21.80;53.70;;;;;;5095644;28;19928;-49
2022/05/10 04:06:03;;;;;;;;;;;21.80;53.70;;;;;;5086971;28;19974;-49
2022/05/10 04:08:30;;;;;;;;;;;21.80;53.70;;;;;;5075895;28;20288;-51
2022/05/10 04:11:04;;;;;;;;;;;21.80;53.70;;;;;;5075453;28;19932;-48
2022/05/10 04:13:36;;;;;;;;;;;21.80;53.70;;;;;;5075196;28;19932;-49
2022/05/10 04:16:03;;;;;;;;;;;21.80;53.70;;;;;;5074757;28;19932;-49
2022/05/10 04:18:30;;;;;;;;;;;21.80;53.70;;;;;;5074507;28;19973;-49
2022/05/10 04:20:57;;;;;;;;;;;21.80;53.70;;;;;;5074903;28;20087;-50
2022/05/10 04:23:25;;;;;;;;;;;21.80;53.60;;;;;;5075057;28;19931;-53
2022/05/10 04:26:10;;;;;;;;;;;21.80;53.60;;;;;;5075069;28;19928;-48
2022/05/10 04:28:37;;;;;;;;;;;21.90;53.70;;;;;;5075197;28;19924;-48
2022/05/10 04:31:04;;;;;;;;;;;21.90;53.70;;;;;;5075310;28;19928;-48
2022/05/10 04:33:32;;;;;;;;;;;21.80;53.60;;;;;;5075575;28;20330;-51
2022/05/10 04:35:58;;;;;;;;;;;21.90;53.60;;;;;;5075606;28;19924;-48
2022/05/10 04:38:25;;;;;;;;;;;21.90;53.70;;;;;;5073480;28;19924;-53
2022/05/10 04:43:38;;;;;;;;;;;21.90;53.60;;;;;;5074828;28;20453;-49
2022/05/10 04:46:06;;;;;;;;;;;21.90;53.60;;;;;;5075113;28;20404;-47
2022/05/10 04:48:33;;;;;;;;;;;21.90;54.20;;;;;;5075160;28;20015;-47
2022/05/10 04:51:01;;;;;;;;;;;21.90;54.10;;;;;;5066589;28;19925;-49
2022/05/10 04:53:28;;;;;;;;;;;22.00;53.60;;;;;;5054909;28;19933;-48
2022/05/10 04:55:55;;;;;;;;;;;22.00;53.50;;;;;;5079788;28;20052;-47
2022/05/10 04:58:22;;;;;;;;;;;22.00;53.40;;;;;;5094541;28;19932;-47
2022/05/10 05:00:49;;;;;;;;;;;22.00;53.30;;;;;;5094545;28;19924;-48
2022/05/10 05:03:16;;;;;;;;;;;22.10;53.30;;;;;;5077598;28;19931;-51
2022/05/10 05:05:43;;;;;;;;;;;22.10;53.20;;;;;;5074530;28;19928;-51
2022/05/10 05:08:10;;;;;;;;;;;22.10;53.20;;;;;;5074241;28;19928;-52
2022/05/10 05:10:37;;;;;;;;;;;22.10;53.20;;;;;;5074121;28;19931;-48
2022/05/10 05:13:04;;;;;;;;;;;22.20;53.20;;;;;;5074011;28;19993;-53
2022/05/10 05:15:31;;;;;;;;;;;22.10;53.00;;;;;;5074347;28;19925;-50
2022/05/10 05:17:58;;;;;;;;;;;22.20;53.10;;;;;;5074735;28;19929;-48
2022/05/10 05:20:25;;;;;;;;;;;22.20;53.10;;;;;;5073848;28;20388;-48
2022/05/10 05:22:53;;;;;;;;;;;22.20;53.10;;;;;;5073762;28;19950;-47
2022/05/10 05:25:20;;;;;;;;;;;22.20;53.00;;;;;;5074232;28;19928;-50
2022/05/10 05:27:47;;;;;;;;;;;22.20;53.00;;;;;;5073903;28;19928;-49
2022/05/10 05:30:15;;;;;;;;;;;22.20;53.00;;;;;;5074366;28;19925;-52
2022/05/10 05:32:42;;;;;;;;;;;22.20;53.10;;;;;;5073832;28;19985;-48
2022/05/10 05:35:11;;;;;;;;;;;22.20;52.90;;;;;;5074014;28;19930;-50
2022/05/10 05:37:38;;;;;;;;;;;22.20;53.60;;;;;;5073551;28;19924;-48
2022/05/10 05:40:12;;;;;;;;;;;22.20;52.90;;;;;;5073946;28;19931;-51
2022/05/10 05:42:45;;;;;;;;;;;22.20;53.00;;;;;;5079274;28;19974;-49
2022/05/10 05:45:13;;;;;;;;;;;22.20;53.00;;;;;;5073996;28;20417;-47
2022/05/10 05:47:40;;;;;;;;;;;22.20;53.00;;;;;;5073584;28;20280;-50
2022/05/10 05:50:08;;;;;;;;;;;22.20;53.00;;;;;;5073492;28;19930;-49
2022/05/10 05:52:35;;;;;;;;;;;22.20;53.00;;;;;;5073254;28;19924;-49
2022/05/10 05:55:03;;;;;;;;;;;22.20;53.00;;;;;;5083976;28;20379;-53
2022/05/10 05:57:30;;;;;;;;;;;22.20;53.00;;;;;;5092887;28;19924;-50
2022/05/10 06:00:00;;;;;;;;;;;22.20;53.00;;;;;;5073450;28;19978;-49
2022/05/10 06:02:28;;;;;;;;;;;22.20;53.00;;;;;;5072966;28;19925;-50
2022/05/10 06:04:55;;;;;;;;;;;22.20;53.10;;;;;;5073317;28;20019;-50
2022/05/10 06:07:22;;;;;;;;;;;22.10;53.00;;;;;;5072989;28;19998;-51
2022/05/10 06:09:49;;;;;;;;;;;22.20;53.10;;;;;;5073245;28;19978;-49
2022/05/10 06:12:17;;;;;;;;;;;22.20;53.10;;;;;;5073636;28;19925;-50
2022/05/10 06:14:44;;;;;;;;;;;22.20;53.70;;;;;;5073305;28;19932;-50
2022/05/10 06:17:12;;;;;;;;;;;22.20;53.10;;;;;;5072702;28;20360;-50
2022/05/10 06:19:39;;;;;;;;;;;22.20;53.10;;;;;;5072952;28;19935;-48
2022/05/10 06:22:07;;;;;;;;;;;22.20;53.70;;;;;;5073050;28;19932;-51
2022/05/10 06:24:34;;;;;;;;;;;22.20;53.10;;;;;;5072057;28;19951;-48
2022/05/10 06:27:02;;;;;;;;;;;22.20;53.10;;;;;;5073279;28;19970;-49
2022/05/10 06:29:30;;;;;;;;;;;22.20;53.10;;;;;;5073074;28;19935;-48
2022/05/10 06:31:57;;;;;;;;;;;22.20;53.10;;;;;;5073092;28;19948;-51
2022/05/10 06:34:24;;;;;;;;;;;22.20;53.10;;;;;;5072893;28;19956;-52
2022/05/10 06:36:51;;;;;;;;;;;22.20;53.10;;;;;;5072897;28;19932;-52
2022/05/10 06:39:18;;;;;;;;;;;22.20;53.00;;;;;;5072665;28;19932;-50
2022/05/10 06:41:45;;;;;;;;;;;22.20;53.00;;;;;;5081039;28;19931;-54
2022/05/10 06:44:12;;;;;;;;;;;22.20;53.00;;;;;;5078771;28;19925;-51
2022/05/10 06:46:39;;;;;;;;;;;22.20;53.00;;;;;;5073005;28;20300;-51
2022/05/10 06:49:06;;;;;;;;;;;22.20;53.00;;;;;;5073235;28;19948;-49
2022/05/10 06:51:34;;;;;;;;;;;22.20;53.60;;;;;;5088293;28;19977;-49
2022/05/10 06:54:01;;;;;;;;;;;22.20;53.00;;;;;;5092843;28;19925;-52
2022/05/10 06:56:28;;;;;;;;;;;22.20;52.90;;;;;;5093277;28;19924;-48
2022/05/10 06:58:55;;;;;;;;;;;22.20;52.90;;;;;;5081616;28;19931;-56
2022/05/10 07:01:22;;;;;;;;;;;22.20;52.90;;;;;;5072872;28;19931;-53
2022/05/10 07:03:50;;;;;;;;;;;22.20;52.90;;;;;;5072887;28;19928;-55
2022/05/10 07:06:18;;;;;;;;;;;22.20;52.90;;;;;;5072824;28;19978;-50
2022/05/10 07:08:45;;;;;;;;;;;22.20;52.90;;;;;;5072437;28;19928;-51
2022/05/10 07:11:13;;;;;;;;;;;22.30;52.90;;;;;;5072991;28;20383;-48
2022/05/10 07:13:40;;;;;;;;;;;22.30;52.90;;;;;;5072981;28;19924;-51
2022/05/10 07:16:07;;;;;;;;;;;22.20;52.80;;;;;;5072649;28;19951;-51
2022/05/10 07:18:34;;;;;;;;;;;22.30;52.80;;;;;;5072390;28;19933;-48
2022/05/10 07:21:02;;;;;;;;;;;22.30;52.80;;;;;;5072167;28;19932;-46
2022/05/10 07:23:30;;;;;;;;;;;22.30;52.80;;;;;;5072119;28;19929;-47
2022/05/10 07:26:02;;;;;;;;;;;22.30;52.80;;;;;;5072792;28;19974;-51
2022/05/10 07:28:29;;;;;;;;;;;22.30;52.70;;;;;;5072220;28;19935;-49
2022/05/10 07:30:57;;;;;;;;;;;22.30;52.70;;;;;;5072364;28;19932;-51
2022/05/10 07:33:25;;;;;;;;;;;22.40;52.80;;;;;;5072834;28;20011;-48
2022/05/10 07:38:38;;;;;;;;;;;22.40;52.70;;;;;;5076030;28;19950;-47
2022/05/10 07:41:05;;;;;;;;;;;22.40;52.70;;;;;;5078293;28;19924;-52
2022/05/10 07:43:34;;;;;;;;;;;22.40;52.70;;;;;;5096355;28;19924;-47
2022/05/10 07:46:01;;;;;;;;;;;22.40;52.70;;;;;;5096191;28;19928;-48
2022/05/10 07:48:28;;;;;;;;;;;22.40;52.70;;;;;;5095967;28;19959;-52
2022/05/10 07:50:55;;;;;;;;;;;22.40;52.60;;;;;;5085208;28;19924;-47
2022/05/10 07:53:22;;;;;;;;;;;22.40;52.60;;;;;;5075900;28;20350;-48
2022/05/10 07:55:50;;;;;;;;;;;22.40;52.60;;;;;;5075807;28;19928;-51
2022/05/10 07:58:17;;;;;;;;;;;22.40;52.60;;;;;;5076060;28;19960;-51
2022/05/10 08:00:45;;;;;;;;;;;22.40;52.60;;;;;;5076194;28;19978;-49
2022/05/10 08:03:13;;;;;;;;;;;22.40;52.60;;;;;;5075612;28;20010;-48
2022/05/10 08:05:41;;;;;;;;;;;22.50;52.60;;;;;;5075623;28;20354;-50
2022/05/10 08:08:09;;;;;;;;;;;22.40;52.50;;;;;;5075868;28;19974;-49
2022/05/10 08:10:36;;;;;;;;;;;22.50;52.60;;;;;;5075149;28;19947;-47
2022/05/10 08:13:04;;;;;;;;;;;22.50;52.60;;;;;;5075632;28;19924;-47
2022/05/10 08:15:31;;;;;;;;;;;22.50;52.60;;;;;;5075061;28;19925;-48
2022/05/10 08:17:58;;;;;;;;;;;22.50;52.50;;;;;;5075515;28;19967;-48
2022/05/10 08:20:25;;;;;;;;;;;22.50;52.60;;;;;;5074285;28;19925;-47
2022/05/10 08:22:52;;;;;;;;;;;22.50;52.50;;;;;;5075247;28;19970;-50
2022/05/10 08:25:19;;;;;;;;;;;22.50;52.50;;;;;;5075341;28;19990;-49
2022/05/10 08:27:46;;;;;;;;;;;22.50;52.50;;;;;;5075316;28;19951;-50
2022/05/10 08:30:13;;;;;;;;;;;22.50;53.10;;;;;;5075474;28;19931;-49
2022/05/10 08:32:40;;;;;;;;;;;22.50;52.50;;;;;;5074854;28;19978;-50
2022/05/10 08:35:38;;;;;;;;;;;22.50;52.50;;;;;;5074711;28;20380;-50
2022/05/10 08:38:05;;;;;;;;;;;22.50;52.50;;;;;;5075182;28;19924;-50
2022/05/10 08:40:34;;;;;;;;;;;22.50;52.50;;;;;;5074558;28;19925;-54
2022/05/10 08:43:03;;;;;;;;;;;22.50;52.50;;;;;;5091551;28;19981;-50
2022/05/10 08:45:33;;;;;;;;;;;22.50;52.50;;;;;;5095372;28;19924;-48
2022/05/10 08:48:00;;;;;;;;;;;22.50;52.50;;;;;;5094709;28;19928;-49
2022/05/10 08:50:27;;;;;;;;;;;22.60;52.50;;;;;;5094993;28;19924;-51
2022/05/10 08:53:04;;;;;;;;;;;22.50;52.50;;;;;;5095426;28;19924;-51
2022/05/10 08:55:33;;;;;;;;;;;22.60;52.50;;;;;;5095267;28;20281;-51
2022/05/10 08:58:10;;;;;;;;;;;22.60;52.50;;;;;;5089796;28;19939;-52
2022/05/10 09:00:47;;;;;;;;;;;22.60;52.50;;;;;;5075250;28;20295;-53
2022/05/10 09:03:34;;;;;;;;;;;22.60;52.50;;;;;;5074603;28;19928;-51
2022/05/10 09:06:20;;;;;;;;;;;22.60;52.50;;;;;;5053083;28;19979;-48
2022/05/10 09:08:57;;;;;;;;;;;22.60;52.50;;;;;;5059058;28;19982;-47
2022/05/10 09:11:38;;;;;;;;;;;22.60;52.50;;;;;;5074465;28;19970;-51
2022/05/10 09:14:09;;;;;;;;;;;22.60;52.50;;;;;;5074118;28;19951;-50
2022/05/10 09:16:36;;;;;;;;;;;22.70;53.10;;;;;;5074559;28;19925;-49
2022/05/10 09:19:03;;;;;;;;;;;22.70;52.50;;;;;;5074431;28;19931;-49
2022/05/10 09:21:37;;;;;;;;;;;22.70;52.50;;;;;;5073575;28;19924;-48
2022/05/10 09:24:23;;;;;;;;;;;22.60;52.50;;;;;;5074163;28;19932;-51
2022/05/10 09:26:55;;;;;;;;;;;22.60;52.40;;;;;;5073965;28;19928;-49
2022/05/10 09:29:39;;;;;;;;;;;22.60;52.50;;;;;;5074226;28;19932;-48
2022/05/10 09:34:59;;;;;;;;;;;22.70;52.50;;;;;;5074009;28;19970;-49
2022/05/10 09:37:26;;;;;;;;;;;22.70;52.50;;;;;;5073920;28;20300;-50
2022/05/10 09:39:56;;;;;;;;;;;22.70;52.50;;;;;;5085254;28;19924;-48
2022/05/10 09:42:37;;;;;;;;;;;22.70;52.50;;;;;;5094484;28;19963;-52
2022/05/10 09:45:06;;;;;;;;;;;22.70;52.50;;;;;;5094402;28;19938;-48
2022/05/10 09:47:34;;;;;;;;;;;22.70;52.50;;;;;;5094005;28;20265;-52
2022/05/10 09:50:14;;;;;;;;;;;22.70;52.50;;;;;;5094177;28;20302;-49
2022/05/10 09:52:41;;;;;;;;;;;22.70;52.50;;;;;;5093517;28;19973;-48
2022/05/10 09:55:12;;;;;;;;;;;22.70;52.50;;;;;;5094016;28;19924;-50
2022/05/10 09:57:39;;;;;;;;;;;22.70;52.50;;;;;;5092823;28;20288;-48
2022/05/10 10:00:08;;;;;;;;;;;22.70;52.50;;;;;;5073255;28;19925;-49
2022/05/10 10:02:37;;;;;;;;;;;22.70;52.50;;;;;;5060385;28;20296;-49
2022/05/10 10:05:18;;;;;;;;;;;22.80;52.50;;;;;;5053713;28;20338;-52
2022/05/10 10:07:53;;;;;;;;;;;22.70;52.40;;;;;;5053306;28;19925;-50
2022/05/10 10:10:24;;;;;;;;;;;22.70;52.40;;;;;;5070422;28;19929;-49
2022/05/10 10:12:51;;;;;;;;;;;22.70;52.40;;;;;;5073318;28;19932;-47
2022/05/10 10:15:18;;;;;;;;;;;22.70;52.50;;;;;;5073488;28;19924;-49
2022/05/10 10:17:53;;;;;;;;;;;22.70;52.40;;;;;;5072864;28;19924;-48
2022/05/10 10:20:32;;;;;;;;;;;22.80;52.50;;;;;;5072511;28;20564;-51
2022/05/10 10:23:01;;;;;;;;;;;22.80;52.50;;;;;;5071441;28;19924;-50
2022/05/10 10:25:29;;;;;;;;;;;22.80;52.50;;;;;;5072364;28;19974;-51
2022/05/10 10:28:13;;;;;;;;;;;22.80;52.50;;;;;;5072868;28;19933;-47
2022/05/10 10:30:49;;;;;;;;;;;22.80;52.50;;;;;;5072464;28;20235;-50
2022/05/10 10:33:29;;;;;;;;;;;22.80;52.40;;;;;;5073345;28;20002;-50
2022/05/10 10:35:59;;;;;;;;;;;22.80;52.50;;;;;;5080682;28;19954;-49
2022/05/10 10:38:36;;;;;;;;;;;22.80;52.50;;;;;;5075996;28;19951;-51
2022/05/10 10:41:09;;;;;;;;;;;22.80;52.40;;;;;;5073898;28;19934;-51
2022/05/10 10:43:50;;;;;;;;;;;22.80;52.40;;;;;;5092820;28;19947;-49
2022/05/10 10:46:20;;;;;;;;;;;22.80;52.40;;;;;;5093213;28;20291;-50
2022/05/10 10:48:48;;;;;;;;;;;22.80;52.40;;;;;;5092711;28;20371;-49
2022/05/10 10:51:15;;;;;;;;;;;22.80;52.40;;;;;;5092960;28;20276;-48
2022/05/10 10:53:44;;;;;;;;;;;22.80;52.40;;;;;;5093179;28;20290;-51
2022/05/10 10:56:14;;;;;;;;;;;22.80;52.40;;;;;;5093042;28;19935;-52
2022/05/10 10:58:48;;;;;;;;;;;22.80;52.40;;;;;;5080837;28;19924;-53
2022/05/10 11:01:26;;;;;;;;;;;22.80;52.40;;;;;;5072882;28;19932;-50
2022/05/10 11:04:10;;;;;;;;;;;22.80;52.50;;;;;;5073113;28;19970;-51
2022/05/10 11:06:48;;;;;;;;;;;22.80;52.40;;;;;;5072910;28;19924;-48
2022/05/10 11:09:14;;;;;;;;;;;22.80;52.50;;;;;;5073408;28;19978;-48
2022/05/10 11:12:00;;;;;;;;;;;22.80;52.50;;;;;;5076486;28;20303;-49
2022/05/10 11:14:28;;;;;;;;;;;22.80;52.50;;;;;;5076986;28;20295;-50
2022/05/10 11:17:13;;;;;;;;;;;22.80;52.50;;;;;;5076632;28;20406;-49
2022/05/10 11:19:48;;;;;;;;;;;22.80;52.50;;;;;;5076369;28;19929;-49
2022/05/10 11:22:15;;;;;;;;;;;22.80;52.50;;;;;;5074571;28;19931;-48
2022/05/10 11:25:21;;;;;;;;;;;22.80;52.50;;;;;;5076244;28;19925;-49
2022/05/10 11:27:50;;;;;;;;;;;22.80;52.40;;;;;;5053815;28;19925;-51
2022/05/10 11:30:20;;;;;;;;;;;22.90;52.50;;;;;;5054384;28;19932;-48
2022/05/10 11:32:59;;;;;;;;;;;22.90;52.50;;;;;;5051081;28;19924;-51
2022/05/10 11:35:41;;;;;;;;;;;22.90;52.50;;;;;;5053857;28;19931;-50
2022/05/10 11:38:18;;;;;;;;;;;22.90;52.50;;;;;;5054006;28;19975;-51
2022/05/10 11:40:45;;;;;;;;;;;22.90;52.60;;;;;;5053708;28;19929;-48
2022/05/10 11:43:31;;;;;;;;;;;22.90;52.50;;;;;;5033709;28;20653;-53
2022/05/10 11:46:08;;;;;;;;;;;22.90;52.50;;;;;;5033485;28;19925;-52
2022/05/10 11:48:35;;;;;;;;;;;22.90;52.50;;;;;;5033453;28;19932;-54
2022/05/10 11:54:13;;;;;;;;;;;22.90;52.50;;;;;;5033635;28;20296;-47
2022/05/10 11:56:41;;;;;;;;;;;22.90;52.50;;;;;;5033709;28;19925;-48
2022/05/10 11:59:12;;;;;;;;;;;22.90;52.50;;;;;;5063320;28;19978;-47
2022/05/10 12:01:39;;;;;;;;;;;22.90;52.40;;;;;;5076154;28;19928;-47
2022/05/10 12:04:07;;;;;;;;;;;22.90;52.40;;;;;;5075518;28;20364;-48
2022/05/10 12:06:35;;;;;;;;;;;22.90;52.30;;;;;;5074908;28;19924;-47
2022/05/10 12:09:04;;;;;;;;;;;22.80;52.20;;;;;;5075821;28;20284;-47
2022/05/10 12:11:31;;;;;;;;;;;22.90;52.30;;;;;;5075032;28;19935;-47
2022/05/10 12:22:17;;;;;;;;;;;22.90;52.10;;;;;;5054738;28;19979;-47
2022/05/10 12:24:46;;;;;;;;;;;22.90;52.10;;;;;;5055259;28;20411;-49
2022/05/10 12:27:13;;;;;;;;;;;22.90;52.10;;;;;;5055014;28;19940;-47
2022/05/10 12:29:39;;;;;;;;;;;22.90;52.10;;;;;;5091145;28;19924;-49
2022/05/10 12:32:13;;;;;;;;;;;22.90;52.10;;;;;;5095498;28;19924;-49
2022/05/10 12:34:42;;;;;;;;;;;22.90;52.00;;;;;;5095157;28;19977;-50
2022/05/10 12:37:28;;;;;;;;;;;22.90;52.00;;;;;;5095610;28;20287;-48
2022/05/10 12:39:56;;;;;;;;;;;22.90;52.00;;;;;;5095319;28;19931;-48
2022/05/10 12:42:46;;;;;;;;;;;22.90;52.00;;;;;;5094985;28;19924;-49
2022/05/10 12:45:32;;;;;;;;;;;22.90;52.00;;;;;;5052318;28;20588;-49
2022/05/10 12:47:59;;;;;;;;;;;22.90;51.90;;;;;;5052707;28;20419;-48
2022/05/10 12:50:45;;;;;;;;;;;22.90;51.90;;;;;;5046770;28;19932;-47
2022/05/10 12:53:22;;;;;;;;;;;22.90;51.90;;;;;;5032676;28;19925;-47
2022/05/10 12:55:51;;;;;;;;;;;22.90;51.90;;;;;;5032341;28;19940;-47
2022/05/10 12:58:21;;;;;;;;;;;22.90;51.90;;;;;;5032814;28;19929;-49
2022/05/10 13:00:52;;;;;;;;;;;22.90;51.90;;;;;;5032694;28;19929;-49
2022/05/10 13:03:22;;;;;;;;;;;22.90;51.90;;;;;;5032419;28;20016;-49
2022/05/10 13:06:07;;;;;;;;;;;22.90;51.80;;;;;;5031933;28;19925;-48
2022/05/10 13:08:34;;;;;;;;;;;22.90;51.80;;;;;;5032005;28;19940;-49
2022/05/10 13:11:23;;;;;;;;;;;22.90;51.80;;;;;;5032863;28;19929;-49
2022/05/10 13:13:52;;;;;;;;;;;22.90;51.80;;;;;;5032284;28;19925;-51
2022/05/10 13:16:22;;;;;;;;;;;22.90;51.80;;;;;;5032354;28;19929;-47
2022/05/10 13:18:53;;;;;;;;;;;22.90;51.70;;;;;;5032409;28;20336;-47
2022/05/10 13:21:28;;;;;;;;;;;22.90;51.70;;;;;;5037107;28;20389;-46
2022/05/10 13:23:58;;;;;;;;;;;22.90;51.70;;;;;;5077562;28;19924;-46
2022/05/10 13:26:25;;;;;;;;;;;22.90;51.70;;;;;;5094180;28;19969;-47
2022/05/10 13:28:54;;;;;;;;;;;22.90;51.70;;;;;;5094524;28;19935;-47
2022/05/10 13:31:23;;;;;;;;;;;22.90;51.70;;;;;;5094525;28;19932;-47
2022/05/10 13:34:11;;;;;;;;;;;22.90;51.70;;;;;;5094362;28;20358;-48
2022/05/10 13:36:38;;;;;;;;;;;22.90;51.70;;;;;;5094578;28;19928;-49
2022/05/10 13:39:06;;;;;;;;;;;22.90;51.60;;;;;;5094108;28;19946;-51
2022/05/10 13:41:36;;;;;;;;;;;22.90;51.60;;;;;;5094581;28;19924;-53
2022/05/10 13:44:08;;;;;;;;;;;22.90;51.60;;;;;;5094371;28;20294;-50
2022/05/10 13:46:54;;;;;;;;;;;22.90;51.60;;;;;;5088553;28;19925;-51
2022/05/10 13:49:24;;;;;;;;;;;22.90;51.60;;;;;;5073938;28;19928;-48
2022/05/10 13:51:54;;;;;;;;;;;22.90;51.60;;;;;;5073254;28;20447;-47
2022/05/10 13:54:27;;;;;;;;;;;22.90;51.60;;;;;;5073427;28;19928;-49
2022/05/10 13:57:08;;;;;;;;;;;22.90;51.60;;;;;;5073708;28;19947;-52
2022/05/10 13:59:35;;;;;;;;;;;22.90;51.60;;;;;;5073588;28;20331;-50
2022/05/10 14:02:04;;;;;;;;;;;22.90;51.60;;;;;;5073058;28;20376;-47
2022/05/10 14:04:31;;;;;;;;;;;22.90;51.60;;;;;;5073364;28;20376;-50
2022/05/10 14:07:07;;;;;;;;;;;22.90;51.60;;;;;;5073516;28;19970;-46
2022/05/10 14:09:40;;;;;;;;;;;22.90;51.60;;;;;;5072828;28;20322;-50
2022/05/10 14:12:11;;;;;;;;;;;22.90;51.60;;;;;;5073275;28;20434;-49
2022/05/10 14:14:39;;;;;;;;;;;22.90;51.60;;;;;;5073164;28;19932;-51
2022/05/10 14:17:07;;;;;;;;;;;22.90;51.60;;;;;;5057775;28;20385;-49
2022/05/10 14:19:38;;;;;;;;;;;22.90;51.60;;;;;;5052270;28;19991;-50
2022/05/10 14:22:06;;;;;;;;;;;22.90;51.60;;;;;;5092104;28;19928;-49
2022/05/10 14:24:34;;;;;;;;;;;22.90;51.60;;;;;;5093220;28;19928;-49
2022/05/10 14:27:12;;;;;;;;;;;22.90;51.50;;;;;;5093501;28;19928;-50
2022/05/10 14:29:45;;;;;;;;;;;22.90;51.50;;;;;;5092813;28;19931;-47
2022/05/10 14:32:14;;;;;;;;;;;22.90;51.50;;;;;;5093283;28;19924;-47
2022/05/10 14:34:43;;;;;;;;;;;22.90;51.50;;;;;;5093254;28;19935;-47
2022/05/10 14:37:11;;;;;;;;;;;22.90;52.10;;;;;;5093206;28;20386;-48
2022/05/10 14:39:38;;;;;;;;;;;22.90;51.50;;;;;;5093068;28;20299;-49
2022/05/10 14:42:05;;;;;;;;;;;22.90;51.50;;;;;;5093319;28;20317;-49
2022/05/10 14:44:50;;;;;;;;;;;22.90;51.50;;;;;;5073456;28;20394;-47
2022/05/10 14:47:24;;;;;;;;;;;22.90;51.50;;;;;;5072583;28;19931;-47
2022/05/10 14:49:51;;;;;;;;;;;22.90;51.40;;;;;;5073299;28;19951;-47
2022/05/10 14:52:25;;;;;;;;;;;22.90;51.40;;;;;;5073145;28;20025;-47
2022/05/10 14:54:53;;;;;;;;;;;22.90;51.40;;;;;;5073071;28;19974;-51
2022/05/10 14:57:37;;;;;;;;;;;22.90;51.40;;;;;;5073030;28;19925;-47
2022/05/10 15:00:26;;;;;;;;;;;22.90;51.40;;;;;;5072956;28;20295;-47
2022/05/10 15:03:07;;;;;;;;;;;22.90;51.30;;;;;;5072696;28;20295;-50